Time;durP1;ratioP1;P1;durP2;ratioP2;P2;SDS_P1;SDS_P2;PMS_P1;PMS_P2;Temp;Humidity;BMP_temperature;BMP_pressure;BME280_temperature;BME280_humidity;BME280_pressure;Samples;Min_cycle;Max_cycle;Signal;HPM_P1;HPM_P2
2022/01/12 00:08:49;;;;;;;16.55;6.78;;;-0.60;99.90;;;;;;6741619;88;20185;-77
2022/01/12 00:18:50;;;;;;;13.68;6.47;;;-0.60;99.90;;;;;;6748386;88;20220;-77
2022/01/12 00:39:10;;;;;;;12.73;5.00;;;-0.30;99.90;;;;;;6757325;88;20224;-77
2022/01/12 00:49:10;;;;;;;14.70;6.00;;;-0.50;99.90;;;;;;6750172;88;20254;-77
2022/01/12 00:59:52;;;;;;;15.77;6.18;;;-0.40;99.90;;;;;;6745512;77;20573;-75
2022/01/12 01:10:02;;;;;;;14.75;7.15;;;-0.50;99.90;;;;;;6756476;88;20210;-75
2022/01/12 01:30:24;;;;;;;15.35;7.10;;;-0.30;99.90;;;;;;6748722;88;20164;-75
2022/01/12 01:40:25;;;;;;;17.80;7.40;;;-0.20;99.90;;;;;;6738233;88;20626;-75
2022/01/12 02:00:45;;;;;;;10.57;4.57;;;0.20;99.90;;;;;;6742189;88;20229;-76
2022/01/12 02:10:45;;;;;;;16.20;6.50;;;0.10;99.90;;;;;;6739894;88;20302;-75
2022/01/12 02:41:39;;;;;;;16.02;7.15;;;-0.10;99.90;;;;;;6737376;88;20254;-75
2022/01/12 03:02:19;;;;;;;18.30;7.30;;;0.00;99.90;;;;;;6736593;88;20593;-75
2022/01/12 03:12:21;;;;;;;11.30;4.28;;;0.00;99.90;;;;;;6739051;88;20686;-76
2022/01/12 03:22:22;;;;;;;16.17;6.72;;;-0.10;99.90;;;;;;6739577;88;20332;-75
2022/01/12 03:32:36;;;;;;;15.88;6.78;;;-0.10;99.90;;;;;;6743319;88;20785;-75
2022/01/12 03:42:37;;;;;;;16.12;7.15;;;-0.20;99.90;;;;;;6747108;88;20693;-75
2022/01/12 03:52:37;;;;;;;15.25;6.12;;;-0.20;99.90;;;;;;6740838;88;20193;-76
2022/01/12 04:02:39;;;;;;;14.32;5.47;;;-0.30;99.90;;;;;;6752079;88;20210;-75
2022/01/12 04:12:40;;;;;;;15.45;7.35;;;-0.30;99.90;;;;;;6766332;88;20297;-75
2022/01/12 04:33:00;;;;;;;15.68;6.80;;;-0.30;99.90;;;;;;6740148;88;20216;-76
2022/01/12 04:43:00;;;;;;;18.05;7.25;;;-0.10;99.90;;;;;;6756264;88;20240;-75
2022/01/12 04:53:01;;;;;;;16.60;6.47;;;-0.10;99.90;;;;;;6751922;88;20215;-76
2022/01/12 05:13:23;;;;;;;15.48;6.70;;;0.10;99.90;;;;;;6736512;88;20244;-76
2022/01/12 05:23:24;;;;;;;13.05;5.97;;;0.10;99.90;;;;;;6737825;88;20218;-76
2022/01/12 05:33:25;;;;;;;13.95;6.25;;;0.20;99.90;;;;;;6735305;88;20747;-76
2022/01/12 05:43:29;;;;;;;13.00;6.53;;;0.30;99.90;;;;;;6750024;88;20925;-76
2022/01/12 05:53:29;;;;;;;14.00;6.50;;;0.40;99.90;;;;;;6741283;87;20592;-76
2022/01/12 06:03:31;;;;;;;14.77;6.90;;;0.30;99.90;;;;;;6754495;87;20222;-75
2022/01/12 06:13:32;;;;;;;16.70;7.05;;;0.40;99.90;;;;;;6745734;87;20197;-76
2022/01/12 06:23:32;;;;;;;15.00;6.37;;;0.50;99.90;;;;;;6735545;88;20200;-75
2022/01/12 06:33:33;;;;;;;15.32;6.68;;;0.60;99.90;;;;;;6752213;88;20965;-75
2022/01/12 06:43:35;;;;;;;14.07;6.78;;;0.50;99.90;;;;;;6755483;87;20229;-76
2022/01/12 06:53:35;;;;;;;12.77;5.57;;;0.40;99.90;;;;;;6754683;88;20187;-75
2022/01/12 07:03:36;;;;;;;20.25;7.20;;;0.30;99.90;;;;;;6756161;88;20240;-75
2022/01/12 07:13:37;;;;;;;17.73;7.35;;;0.20;99.90;;;;;;6752946;88;20219;-76
2022/01/12 07:23:37;;;;;;;13.23;6.68;;;0.30;99.90;;;;;;6739982;88;20183;-75
2022/01/12 07:33:38;;;;;;;16.42;7.45;;;0.20;99.90;;;;;;6744620;88;20235;-76
2022/01/12 07:43:38;;;;;;;17.87;7.20;;;0.30;99.90;;;;;;6743080;88;20237;-77
2022/01/12 07:53:39;;;;;;;14.50;7.07;;;0.50;99.90;;;;;;6738770;88;20242;-76
2022/01/12 08:03:39;;;;;;;17.35;7.35;;;0.70;99.90;;;;;;6743947;88;20221;-76
2022/01/12 08:13:42;;;;;;;15.30;6.75;;;0.90;99.90;;;;;;6741464;87;20189;-75
2022/01/12 08:23:43;;;;;;;14.90;7.00;;;1.10;99.90;;;;;;6740642;88;20188;-76
2022/01/12 08:33:44;;;;;;;15.57;7.00;;;1.00;99.90;;;;;;6735087;88;20770;-75
2022/01/12 08:43:44;;;;;;;13.18;6.50;;;1.10;99.90;;;;;;6742508;88;20279;-77
2022/01/12 08:53:45;;;;;;;16.23;6.68;;;1.20;99.90;;;;;;6741139;88;20187;-75
2022/01/12 09:03:46;;;;;;;14.23;7.05;;;1.30;99.90;;;;;;6741618;88;20786;-78
2022/01/12 09:13:46;;;;;;;13.88;7.10;;;1.30;99.90;;;;;;6741329;88;20203;-77
2022/01/12 09:23:48;;;;;;;17.05;6.93;;;1.40;99.90;;;;;;6740250;87;20525;-77
2022/01/12 09:33:50;;;;;;;17.20;5.95;;;1.50;99.90;;;;;;6741289;88;21165;-76
2022/01/12 09:43:52;;;;;;;13.88;7.32;;;1.50;99.90;;;;;;6742414;88;20240;-76
2022/01/12 09:53:53;;;;;;;15.60;6.97;;;1.70;99.90;;;;;;6737879;88;20295;-76
2022/01/12 10:04:17;;;;;;;16.10;7.55;;;1.90;99.90;;;;;;6735845;88;20204;-77
2022/01/12 10:14:18;;;;;;;18.20;7.28;;;2.20;99.90;;;;;;6744641;88;20201;-77
2022/01/12 10:24:20;;;;;;;16.40;8.18;;;2.30;99.90;;;;;;6734561;88;20192;-76
2022/01/12 10:34:24;;;;;;;17.65;7.50;;;2.30;99.90;;;;;;6731483;88;20274;-77
2022/01/12 10:44:32;;;;;;;17.33;8.45;;;2.10;99.90;;;;;;6730400;88;20200;-76
2022/01/12 10:54:43;;;;;;;16.77;8.13;;;2.40;99.90;;;;;;6732904;88;20235;-75
2022/01/12 11:04:44;;;;;;;17.95;8.43;;;2.60;99.90;;;;;;6732511;88;20193;-76
2022/01/12 11:14:44;;;;;;;18.40;7.70;;;2.70;99.90;;;;;;6733576;88;20739;-75
2022/01/12 11:24:45;;;;;;;14.75;7.12;;;3.00;99.90;;;;;;6738218;88;20279;-75
2022/01/12 11:34:45;;;;;;;13.48;7.43;;;3.00;99.90;;;;;;6733460;88;20256;-75
2022/01/12 11:44:46;;;;;;;16.65;7.85;;;3.00;99.90;;;;;;6731496;87;20991;-75
2022/01/12 11:54:47;;;;;;;16.40;7.80;;;3.10;99.90;;;;;;6730896;88;20204;-77
2022/01/12 12:04:57;;;;;;;15.20;7.78;;;3.20;99.90;;;;;;6730705;88;20357;-76
2022/01/12 12:15:00;;;;;;;14.70;6.90;;;3.30;99.90;;;;;;6732814;88;20193;-76
2022/01/12 12:25:25;;;;;;;16.05;7.62;;;3.20;99.90;;;;;;6732969;88;21282;-76
2022/01/12 12:35:30;;;;;;;21.10;7.80;;;3.20;99.90;;;;;;6742777;88;20209;-76
2022/01/12 12:45:40;;;;;;;16.95;7.78;;;3.20;99.90;;;;;;6737425;87;20225;-74
2022/01/12 12:55:43;;;;;;;16.17;8.38;;;3.20;99.90;;;;;;6740126;76;20325;-78
2022/01/12 13:05:44;;;;;;;15.98;8.00;;;3.20;99.90;;;;;;6757194;88;20199;-78
2022/01/12 13:15:47;;;;;;;17.33;9.25;;;3.30;99.90;;;;;;6751641;88;20206;-78
2022/01/12 13:25:54;;;;;;;15.50;7.87;;;3.40;99.90;;;;;;6750487;88;20287;-78
2022/01/12 13:35:55;;;;;;;19.42;8.23;;;3.60;99.90;;;;;;6751182;88;20196;-78
2022/01/12 13:46:04;;;;;;;19.00;8.32;;;3.50;99.90;;;;;;6750392;88;20192;-78
2022/01/12 13:56:06;;;;;;;18.65;8.73;;;3.80;99.90;;;;;;6751727;88;20669;-78
2022/01/12 14:06:14;;;;;;;15.23;7.72;;;3.80;99.90;;;;;;6744960;88;20187;-77
2022/01/12 14:16:15;;;;;;;17.60;8.38;;;3.90;99.90;;;;;;6736707;88;20212;-75
2022/01/12 14:26:20;;;;;;;15.93;8.20;;;4.10;99.90;;;;;;6734594;88;20204;-76
2022/01/12 14:36:21;;;;;;;17.70;8.70;;;3.90;99.90;;;;;;6739219;88;20173;-78
2022/01/12 14:46:21;;;;;;;23.42;10.40;;;3.90;99.90;;;;;;6740360;88;20607;-78
2022/01/12 14:56:22;;;;;;;28.77;10.38;;;4.10;99.90;;;;;;6737609;88;20207;-77
2022/01/12 15:06:23;;;;;;;38.28;12.82;;;4.00;99.90;;;;;;6739827;88;20266;-78
2022/01/12 15:16:23;;;;;;;40.85;13.50;;;3.80;99.90;;;;;;6735544;88;20552;-77
2022/01/12 15:26:24;;;;;;;40.95;14.15;;;3.80;99.90;;;;;;6720232;88;20320;-76
2022/01/12 15:36:24;;;;;;;18.90;9.00;;;3.90;99.90;;;;;;6745454;88;20683;-79
2022/01/12 15:46:25;;;;;;;27.13;9.82;;;3.70;99.90;;;;;;6751972;88;20268;-78
2022/01/12 15:56:25;;;;;;;21.42;10.18;;;3.80;99.90;;;;;;6755458;88;20200;-79
2022/01/12 16:06:27;;;;;;;22.17;10.45;;;3.70;99.90;;;;;;6753542;88;20262;-78
2022/01/12 16:16:29;;;;;;;21.70;9.95;;;3.70;99.90;;;;;;6752035;88;20191;-78
2022/01/12 16:26:30;;;;;;;25.48;10.63;;;3.70;99.90;;;;;;6746503;88;20204;-78
2022/01/12 16:36:33;;;;;;;25.40;11.25;;;3.50;99.90;;;;;;6737221;88;20294;-78
2022/01/12 16:46:35;;;;;;;27.90;11.07;;;3.50;99.90;;;;;;6736089;88;20228;-78
2022/01/12 16:56:36;;;;;;;28.45;12.85;;;3.40;99.90;;;;;;6724932;88;21054;-79
2022/01/12 17:06:37;;;;;;;32.90;13.25;;;3.70;99.90;;;;;;6739672;88;20169;-78
2022/01/12 17:16:46;;;;;;;50.70;17.05;;;3.50;99.90;;;;;;6741918;88;20684;-79
2022/01/12 17:27:03;;;;;;;60.00;18.40;;;3.60;99.90;;;;;;6738227;88;20201;-77
2022/01/12 17:37:07;;;;;;;61.17;19.90;;;3.80;99.90;;;;;;6740011;88;20184;-77
2022/01/12 17:47:11;;;;;;;61.40;19.83;;;3.60;99.90;;;;;;6743703;88;20189;-78
2022/01/12 17:57:12;;;;;;;61.28;19.37;;;3.70;99.90;;;;;;6745331;88;20754;-82
2022/01/12 18:07:13;;;;;;;64.72;20.23;;;3.70;99.90;;;;;;6749808;88;20202;-77
2022/01/12 18:17:13;;;;;;;68.35;20.55;;;3.60;99.90;;;;;;6734286;88;20219;-77
2022/01/12 18:27:15;;;;;;;67.65;19.37;;;3.70;99.90;;;;;;6724633;88;20196;-76
2022/01/12 18:37:16;;;;;;;61.60;18.27;;;3.80;99.90;;;;;;6723012;88;20597;-78
2022/01/12 18:47:17;;;;;;;54.45;17.83;;;3.40;99.90;;;;;;6722117;88;20239;-77
2022/01/12 18:57:18;;;;;;;43.08;14.93;;;3.50;99.90;;;;;;6728078;88;20351;-76
2022/01/12 19:07:18;;;;;;;53.85;18.40;;;3.50;99.90;;;;;;6741275;76;20229;-74
2022/01/12 19:17:19;;;;;;;51.55;17.92;;;3.60;99.90;;;;;;6739211;88;20210;-74
2022/01/12 19:27:19;;;;;;;54.88;18.12;;;3.70;99.90;;;;;;6734205;88;20189;-74
2022/01/12 19:37:21;;;;;;;49.65;17.05;;;3.80;99.90;;;;;;6733537;87;20385;-74
2022/01/12 19:47:21;;;;;;;47.80;17.08;;;3.70;99.90;;;;;;6730111;88;20240;-74
2022/01/12 19:57:31;;;;;;;42.92;16.62;;;3.70;99.90;;;;;;6740069;88;20832;-75
2022/01/12 20:07:36;;;;;;;50.22;17.45;;;3.60;99.90;;;;;;6724130;88;20251;-76
2022/01/12 20:27:37;;;;;;;51.50;18.05;;;3.70;99.90;;;;;;6723688;88;20198;-74
2022/01/12 20:37:39;;;;;;;47.70;17.40;;;3.70;99.90;;;;;;6735893;88;20222;-76
2022/01/12 20:47:40;;;;;;;53.17;19.23;;;3.50;99.90;;;;;;6730663;87;20213;-76
2022/01/12 20:57:42;;;;;;;46.42;17.42;;;3.60;99.90;;;;;;6726191;88;20213;-75
2022/01/12 21:07:43;;;;;;;45.53;16.85;;;3.70;99.90;;;;;;6733606;88;20739;-75
2022/01/12 21:17:44;;;;;;;47.90;17.20;;;3.70;99.90;;;;;;6745913;88;20316;-76
2022/01/12 21:27:45;;;;;;;52.05;19.10;;;3.70;99.90;;;;;;6733763;88;20663;-76
2022/01/12 21:37:47;;;;;;;46.80;18.80;;;3.60;99.90;;;;;;6732295;88;20168;-75
2022/01/12 21:47:47;;;;;;;48.33;18.02;;;3.50;99.90;;;;;;6732018;88;20235;-74
2022/01/12 21:57:48;;;;;;;45.90;18.37;;;3.50;99.90;;;;;;6732582;88;20390;-75
2022/01/12 22:07:48;;;;;;;41.08;17.55;;;3.50;99.90;;;;;;6732373;88;20211;-75
2022/01/12 22:17:49;;;;;;;43.80;16.90;;;3.40;99.90;;;;;;6733715;88;20228;-74
2022/01/12 22:27:50;;;;;;;47.85;17.25;;;3.40;99.90;;;;;;6733041;88;20275;-75
2022/01/12 22:37:50;;;;;;;41.28;17.20;;;3.40;99.90;;;;;;6734427;88;20177;-76
2022/01/12 22:47:51;;;;;;;37.05;15.80;;;3.30;99.90;;;;;;6748228;88;20366;-75
2022/01/12 22:58:05;;;;;;;38.60;15.70;;;3.30;99.90;;;;;;6760184;88;20187;-74
2022/01/12 23:08:07;;;;;;;37.58;15.00;;;3.20;99.90;;;;;;6728930;88;20497;-74
2022/01/12 23:18:08;;;;;;;34.20;14.63;;;3.20;99.90;;;;;;6759777;87;20218;-76
2022/01/12 23:28:09;;;;;;;32.78;15.07;;;3.10;99.90;;;;;;6759623;88;20187;-74
2022/01/12 23:58:32;;;;;;;41.35;14.70;;;3.00;99.90;;;;;;6749445;87;21026;-75
